sensor_id;sensor_type;location;lat;lon;timestamp;P1;durP1;ratioP1;P2;durP2;ratioP2
20844;SDS011;10583;49.084;8.646;2023-02-22T00:00:18;7.73;;;7.73;;
20844;SDS011;10583;49.084;8.646;2023-02-22T00:03:00;6.87;;;6.87;;
20844;SDS011;10583;49.084;8.646;2023-02-22T00:05:29;6.90;;;6.90;;
20844;SDS011;10583;49.084;8.646;2023-02-22T00:07:56;6.20;;;6.20;;
20844;SDS011;10583;49.084;8.646;2023-02-22T00:10:25;6.90;;;6.90;;
20844;SDS011;10583;49.084;8.646;2023-02-22T00:12:52;6.27;;;6.27;;
20844;SDS011;10583;49.084;8.646;2023-02-22T00:15:21;6.13;;;6.13;;
20844;SDS011;10583;49.084;8.646;2023-02-22T00:17:51;6.57;;;6.57;;
20844;SDS011;10583;49.084;8.646;2023-02-22T00:20:18;6.43;;;6.43;;
20844;SDS011;10583;49.084;8.646;2023-02-22T00:22:49;6.40;;;6.40;;
20844;SDS011;10583;49.084;8.646;2023-02-22T00:25:17;5.80;;;5.80;;
20844;SDS011;10583;49.084;8.646;2023-02-22T00:27:45;6.43;;;6.43;;
20844;SDS011;10583;49.084;8.646;2023-02-22T00:30:14;7.77;;;7.77;;
20844;SDS011;10583;49.084;8.646;2023-02-22T00:32:43;7.67;;;7.67;;
20844;SDS011;10583;49.084;8.646;2023-02-22T00:35:10;6.30;;;6.30;;
20844;SDS011;10583;49.084;8.646;2023-02-22T00:37:38;7.10;;;7.10;;
20844;SDS011;10583;49.084;8.646;2023-02-22T00:40:07;8.13;;;8.13;;
20844;SDS011;10583;49.084;8.646;2023-02-22T00:42:35;7.30;;;7.30;;
20844;SDS011;10583;49.084;8.646;2023-02-22T00:45:02;9.77;;;9.77;;
20844;SDS011;10583;49.084;8.646;2023-02-22T00:47:29;9.67;;;9.57;;
20844;SDS011;10583;49.084;8.646;2023-02-22T00:49:56;9.87;;;9.77;;
20844;SDS011;10583;49.084;8.646;2023-02-22T00:52:24;10.40;;;10.40;;
20844;SDS011;10583;49.084;8.646;2023-02-22T00:54:51;10.87;;;10.77;;
20844;SDS011;10583;49.084;8.646;2023-02-22T00:57:20;10.90;;;10.80;;
20844;SDS011;10583;49.084;8.646;2023-02-22T00:59:47;9.73;;;9.73;;
20844;SDS011;10583;49.084;8.646;2023-02-22T01:02:13;9.97;;;9.87;;
20844;SDS011;10583;49.084;8.646;2023-02-22T01:04:40;9.23;;;9.23;;
20844;SDS011;10583;49.084;8.646;2023-02-22T01:07:07;10.00;;;9.90;;
20844;SDS011;10583;49.084;8.646;2023-02-22T01:09:34;8.93;;;8.93;;
20844;SDS011;10583;49.084;8.646;2023-02-22T01:12:03;9.30;;;9.30;;
20844;SDS011;10583;49.084;8.646;2023-02-22T01:14:33;8.60;;;8.60;;
20844;SDS011;10583;49.084;8.646;2023-02-22T01:17:00;9.03;;;9.03;;
20844;SDS011;10583;49.084;8.646;2023-02-22T01:19:26;10.17;;;10.07;;
20844;SDS011;10583;49.084;8.646;2023-02-22T01:21:53;9.80;;;9.70;;
20844;SDS011;10583;49.084;8.646;2023-02-22T01:24:20;9.63;;;9.63;;
20844;SDS011;10583;49.084;8.646;2023-02-22T01:26:48;8.20;;;8.20;;
20844;SDS011;10583;49.084;8.646;2023-02-22T01:29:16;9.20;;;9.20;;
20844;SDS011;10583;49.084;8.646;2023-02-22T01:31:50;9.00;;;9.00;;
20844;SDS011;10583;49.084;8.646;2023-02-22T01:34:18;8.67;;;8.67;;
20844;SDS011;10583;49.084;8.646;2023-02-22T01:36:46;8.93;;;8.93;;
20844;SDS011;10583;49.084;8.646;2023-02-22T01:39:12;8.90;;;8.90;;
20844;SDS011;10583;49.084;8.646;2023-02-22T01:41:40;8.10;;;8.10;;
20844;SDS011;10583;49.084;8.646;2023-02-22T01:44:16;8.53;;;8.53;;
20844;SDS011;10583;49.084;8.646;2023-02-22T01:46:45;8.00;;;8.00;;
20844;SDS011;10583;49.084;8.646;2023-02-22T01:49:13;8.03;;;8.03;;
20844;SDS011;10583;49.084;8.646;2023-02-22T01:51:43;7.60;;;7.60;;
20844;SDS011;10583;49.084;8.646;2023-02-22T01:54:15;8.07;;;8.07;;
20844;SDS011;10583;49.084;8.646;2023-02-22T01:56:45;8.03;;;8.03;;
20844;SDS011;10583;49.084;8.646;2023-02-22T01:59:15;7.73;;;7.73;;
20844;SDS011;10583;49.084;8.646;2023-02-22T02:01:43;7.47;;;7.47;;
20844;SDS011;10583;49.084;8.646;2023-02-22T02:04:11;8.57;;;8.57;;
20844;SDS011;10583;49.084;8.646;2023-02-22T02:06:41;7.00;;;7.00;;
20844;SDS011;10583;49.084;8.646;2023-02-22T02:09:11;6.90;;;6.90;;
20844;SDS011;10583;49.084;8.646;2023-02-22T02:11:44;6.97;;;6.97;;
20844;SDS011;10583;49.084;8.646;2023-02-22T02:14:11;7.93;;;7.93;;
20844;SDS011;10583;49.084;8.646;2023-02-22T02:16:39;7.17;;;7.17;;
20844;SDS011;10583;49.084;8.646;2023-02-22T02:19:09;7.33;;;7.33;;
20844;SDS011;10583;49.084;8.646;2023-02-22T02:21:45;7.90;;;7.90;;
20844;SDS011;10583;49.084;8.646;2023-02-22T02:25:02;7.17;;;7.17;;
20844;SDS011;10583;49.084;8.646;2023-02-22T02:31:35;6.80;;;6.80;;
20844;SDS011;10583;49.084;8.646;2023-02-22T02:34:25;6.50;;;6.50;;
20844;SDS011;10583;49.084;8.646;2023-02-22T02:36:59;7.17;;;7.17;;
20844;SDS011;10583;49.084;8.646;2023-02-22T02:39:34;7.20;;;7.20;;
20844;SDS011;10583;49.084;8.646;2023-02-22T02:42:05;6.70;;;6.70;;
20844;SDS011;10583;49.084;8.646;2023-02-22T02:44:36;7.13;;;7.13;;
20844;SDS011;10583;49.084;8.646;2023-02-22T02:47:07;6.60;;;6.60;;
20844;SDS011;10583;49.084;8.646;2023-02-22T02:49:41;6.20;;;6.20;;
20844;SDS011;10583;49.084;8.646;2023-02-22T02:52:13;7.27;;;7.27;;
20844;SDS011;10583;49.084;8.646;2023-02-22T02:54:42;6.33;;;6.33;;
20844;SDS011;10583;49.084;8.646;2023-02-22T02:57:10;6.60;;;6.60;;
20844;SDS011;10583;49.084;8.646;2023-02-22T02:59:37;7.17;;;7.17;;
20844;SDS011;10583;49.084;8.646;2023-02-22T03:02:14;6.43;;;6.43;;
20844;SDS011;10583;49.084;8.646;2023-02-22T03:05:00;6.23;;;6.23;;
20844;SDS011;10583;49.084;8.646;2023-02-22T03:07:45;6.40;;;6.40;;
20844;SDS011;10583;49.084;8.646;2023-02-22T03:10:19;5.83;;;5.83;;
20844;SDS011;10583;49.084;8.646;2023-02-22T03:12:56;6.07;;;6.07;;
20844;SDS011;10583;49.084;8.646;2023-02-22T03:15:31;6.70;;;6.70;;
20844;SDS011;10583;49.084;8.646;2023-02-22T03:18:04;7.33;;;7.33;;
20844;SDS011;10583;49.084;8.646;2023-02-22T03:20:40;6.97;;;6.97;;
20844;SDS011;10583;49.084;8.646;2023-02-22T03:23:11;6.50;;;6.50;;
20844;SDS011;10583;49.084;8.646;2023-02-22T03:25:49;5.80;;;5.80;;
20844;SDS011;10583;49.084;8.646;2023-02-22T03:28:19;6.00;;;6.00;;
20844;SDS011;10583;49.084;8.646;2023-02-22T03:30:51;7.00;;;7.00;;
20844;SDS011;10583;49.084;8.646;2023-02-22T03:33:22;6.43;;;6.43;;
20844;SDS011;10583;49.084;8.646;2023-02-22T03:35:55;5.97;;;5.97;;
20844;SDS011;10583;49.084;8.646;2023-02-22T03:38:26;6.40;;;6.40;;
20844;SDS011;10583;49.084;8.646;2023-02-22T03:40:58;6.50;;;6.50;;
20844;SDS011;10583;49.084;8.646;2023-02-22T03:43:29;6.10;;;6.10;;
20844;SDS011;10583;49.084;8.646;2023-02-22T03:45:59;6.70;;;6.70;;
20844;SDS011;10583;49.084;8.646;2023-02-22T03:48:29;8.13;;;8.13;;
20844;SDS011;10583;49.084;8.646;2023-02-22T03:51:02;7.13;;;7.13;;
20844;SDS011;10583;49.084;8.646;2023-02-22T03:53:30;7.17;;;7.17;;
20844;SDS011;10583;49.084;8.646;2023-02-22T03:56:01;6.93;;;6.93;;
20844;SDS011;10583;49.084;8.646;2023-02-22T03:58:29;6.90;;;6.90;;
20844;SDS011;10583;49.084;8.646;2023-02-22T04:00:59;7.07;;;7.07;;
20844;SDS011;10583;49.084;8.646;2023-02-22T04:03:26;7.00;;;7.00;;
20844;SDS011;10583;49.084;8.646;2023-02-22T04:05:52;7.23;;;7.23;;
20844;SDS011;10583;49.084;8.646;2023-02-22T04:08:20;7.30;;;7.30;;
20844;SDS011;10583;49.084;8.646;2023-02-22T04:10:47;6.93;;;6.93;;
20844;SDS011;10583;49.084;8.646;2023-02-22T04:13:14;7.30;;;7.30;;
20844;SDS011;10583;49.084;8.646;2023-02-22T04:15:41;7.17;;;7.17;;
20844;SDS011;10583;49.084;8.646;2023-02-22T04:18:07;7.03;;;7.03;;
20844;SDS011;10583;49.084;8.646;2023-02-22T04:20:34;6.87;;;6.87;;
20844;SDS011;10583;49.084;8.646;2023-02-22T04:23:01;7.00;;;7.00;;
20844;SDS011;10583;49.084;8.646;2023-02-22T04:25:29;7.30;;;7.30;;
20844;SDS011;10583;49.084;8.646;2023-02-22T04:27:56;8.90;;;8.90;;
20844;SDS011;10583;49.084;8.646;2023-02-22T04:30:23;7.97;;;7.97;;
20844;SDS011;10583;49.084;8.646;2023-02-22T04:32:50;7.13;;;7.13;;
20844;SDS011;10583;49.084;8.646;2023-02-22T04:35:17;7.63;;;7.63;;
20844;SDS011;10583;49.084;8.646;2023-02-22T04:37:44;7.40;;;7.40;;
20844;SDS011;10583;49.084;8.646;2023-02-22T04:40:11;7.00;;;7.00;;
20844;SDS011;10583;49.084;8.646;2023-02-22T04:42:39;7.37;;;7.37;;
20844;SDS011;10583;49.084;8.646;2023-02-22T04:45:06;7.40;;;7.40;;
20844;SDS011;10583;49.084;8.646;2023-02-22T04:47:34;7.67;;;7.67;;
20844;SDS011;10583;49.084;8.646;2023-02-22T04:50:01;7.33;;;7.33;;
20844;SDS011;10583;49.084;8.646;2023-02-22T04:52:28;7.33;;;7.33;;
20844;SDS011;10583;49.084;8.646;2023-02-22T04:54:55;7.77;;;7.77;;
20844;SDS011;10583;49.084;8.646;2023-02-22T04:57:21;6.77;;;6.77;;
20844;SDS011;10583;49.084;8.646;2023-02-22T04:59:49;6.30;;;6.30;;
20844;SDS011;10583;49.084;8.646;2023-02-22T05:02:16;7.20;;;7.20;;
20844;SDS011;10583;49.084;8.646;2023-02-22T05:04:43;7.10;;;7.10;;
20844;SDS011;10583;49.084;8.646;2023-02-22T05:07:10;7.13;;;7.13;;
20844;SDS011;10583;49.084;8.646;2023-02-22T05:09:37;8.00;;;8.00;;
20844;SDS011;10583;49.084;8.646;2023-02-22T05:12:04;7.70;;;7.70;;
20844;SDS011;10583;49.084;8.646;2023-02-22T05:14:31;8.63;;;8.63;;
20844;SDS011;10583;49.084;8.646;2023-02-22T05:16:59;7.00;;;7.00;;
20844;SDS011;10583;49.084;8.646;2023-02-22T05:19:27;6.73;;;6.73;;
20844;SDS011;10583;49.084;8.646;2023-02-22T05:21:54;7.63;;;7.63;;
20844;SDS011;10583;49.084;8.646;2023-02-22T05:24:21;7.80;;;7.80;;
20844;SDS011;10583;49.084;8.646;2023-02-22T05:26:48;8.10;;;8.10;;
20844;SDS011;10583;49.084;8.646;2023-02-22T05:29:17;7.47;;;7.47;;
20844;SDS011;10583;49.084;8.646;2023-02-22T05:31:44;7.10;;;7.10;;
20844;SDS011;10583;49.084;8.646;2023-02-22T05:34:12;7.20;;;7.20;;
20844;SDS011;10583;49.084;8.646;2023-02-22T05:36:39;7.50;;;7.50;;
20844;SDS011;10583;49.084;8.646;2023-02-22T05:39:05;6.83;;;6.83;;
20844;SDS011;10583;49.084;8.646;2023-02-22T05:41:32;7.97;;;7.97;;
20844;SDS011;10583;49.084;8.646;2023-02-22T05:43:59;7.73;;;7.73;;
20844;SDS011;10583;49.084;8.646;2023-02-22T05:46:27;8.07;;;8.07;;
20844;SDS011;10583;49.084;8.646;2023-02-22T05:48:53;9.20;;;9.20;;
20844;SDS011;10583;49.084;8.646;2023-02-22T05:51:21;8.13;;;8.13;;
20844;SDS011;10583;49.084;8.646;2023-02-22T05:53:48;7.23;;;7.23;;
20844;SDS011;10583;49.084;8.646;2023-02-22T05:56:19;7.30;;;7.30;;
20844;SDS011;10583;49.084;8.646;2023-02-22T05:58:46;7.30;;;7.30;;
20844;SDS011;10583;49.084;8.646;2023-02-22T06:01:13;7.93;;;7.93;;
20844;SDS011;10583;49.084;8.646;2023-02-22T06:03:40;7.73;;;7.73;;
20844;SDS011;10583;49.084;8.646;2023-02-22T06:06:06;7.47;;;7.47;;
20844;SDS011;10583;49.084;8.646;2023-02-22T06:08:36;7.53;;;7.53;;
20844;SDS011;10583;49.084;8.646;2023-02-22T06:11:03;7.97;;;7.97;;
20844;SDS011;10583;49.084;8.646;2023-02-22T06:13:30;7.90;;;7.90;;
20844;SDS011;10583;49.084;8.646;2023-02-22T06:15:57;6.97;;;6.97;;
20844;SDS011;10583;49.084;8.646;2023-02-22T06:18:24;7.20;;;7.20;;
20844;SDS011;10583;49.084;8.646;2023-02-22T06:20:51;7.73;;;7.73;;
20844;SDS011;10583;49.084;8.646;2023-02-22T06:23:17;7.77;;;7.77;;
20844;SDS011;10583;49.084;8.646;2023-02-22T06:25:46;8.13;;;8.13;;
20844;SDS011;10583;49.084;8.646;2023-02-22T06:28:13;9.37;;;9.37;;
20844;SDS011;10583;49.084;8.646;2023-02-22T06:30:40;10.10;;;10.10;;
20844;SDS011;10583;49.084;8.646;2023-02-22T06:33:07;9.83;;;9.83;;
20844;SDS011;10583;49.084;8.646;2023-02-22T06:35:34;10.13;;;10.10;;
20844;SDS011;10583;49.084;8.646;2023-02-22T06:38:01;10.60;;;10.50;;
20844;SDS011;10583;49.084;8.646;2023-02-22T06:40:28;10.80;;;10.80;;
20844;SDS011;10583;49.084;8.646;2023-02-22T06:42:56;10.00;;;9.90;;
20844;SDS011;10583;49.084;8.646;2023-02-22T06:45:24;10.03;;;10.03;;
20844;SDS011;10583;49.084;8.646;2023-02-22T06:47:51;10.17;;;10.17;;
20844;SDS011;10583;49.084;8.646;2023-02-22T06:50:19;10.17;;;10.17;;
20844;SDS011;10583;49.084;8.646;2023-02-22T06:52:47;10.83;;;10.77;;
20844;SDS011;10583;49.084;8.646;2023-02-22T06:55:19;10.27;;;10.17;;
20844;SDS011;10583;49.084;8.646;2023-02-22T06:57:47;11.00;;;10.90;;
20844;SDS011;10583;49.084;8.646;2023-02-22T07:00:16;11.97;;;11.87;;
20844;SDS011;10583;49.084;8.646;2023-02-22T07:02:44;11.93;;;11.83;;
20844;SDS011;10583;49.084;8.646;2023-02-22T07:05:12;10.30;;;10.20;;
20844;SDS011;10583;49.084;8.646;2023-02-22T07:07:41;10.17;;;10.17;;
20844;SDS011;10583;49.084;8.646;2023-02-22T07:10:14;9.73;;;9.73;;
20844;SDS011;10583;49.084;8.646;2023-02-22T07:12:43;10.07;;;10.07;;
20844;SDS011;10583;49.084;8.646;2023-02-22T07:15:09;9.90;;;9.90;;
20844;SDS011;10583;49.084;8.646;2023-02-22T07:17:39;10.47;;;10.47;;
20844;SDS011;10583;49.084;8.646;2023-02-22T07:20:06;11.73;;;11.73;;
20844;SDS011;10583;49.084;8.646;2023-02-22T07:22:35;11.80;;;11.70;;
20844;SDS011;10583;49.084;8.646;2023-02-22T07:25:02;10.83;;;10.77;;
20844;SDS011;10583;49.084;8.646;2023-02-22T07:27:29;12.10;;;12.00;;
20844;SDS011;10583;49.084;8.646;2023-02-22T07:29:56;11.83;;;11.73;;
20844;SDS011;10583;49.084;8.646;2023-02-22T07:32:23;12.77;;;12.67;;
20844;SDS011;10583;49.084;8.646;2023-02-22T07:34:51;10.87;;;10.87;;
20844;SDS011;10583;49.084;8.646;2023-02-22T07:37:17;11.40;;;11.40;;
20844;SDS011;10583;49.084;8.646;2023-02-22T07:39:45;12.00;;;11.93;;
20844;SDS011;10583;49.084;8.646;2023-02-22T07:42:11;11.83;;;11.73;;
20844;SDS011;10583;49.084;8.646;2023-02-22T07:44:38;11.43;;;11.33;;
20844;SDS011;10583;49.084;8.646;2023-02-22T07:47:05;11.53;;;11.43;;
20844;SDS011;10583;49.084;8.646;2023-02-22T07:49:32;11.40;;;11.30;;
20844;SDS011;10583;49.084;8.646;2023-02-22T07:52:00;11.57;;;11.47;;
20844;SDS011;10583;49.084;8.646;2023-02-22T07:54:27;10.70;;;10.63;;
20844;SDS011;10583;49.084;8.646;2023-02-22T07:56:54;11.70;;;11.60;;
20844;SDS011;10583;49.084;8.646;2023-02-22T07:59:20;12.50;;;12.40;;
20844;SDS011;10583;49.084;8.646;2023-02-22T08:01:47;12.53;;;12.43;;
20844;SDS011;10583;49.084;8.646;2023-02-22T08:04:14;9.83;;;9.83;;
20844;SDS011;10583;49.084;8.646;2023-02-22T08:06:41;12.00;;;11.90;;
20844;SDS011;10583;49.084;8.646;2023-02-22T08:09:11;12.03;;;11.93;;
20844;SDS011;10583;49.084;8.646;2023-02-22T08:11:38;13.07;;;12.97;;
20844;SDS011;10583;49.084;8.646;2023-02-22T08:14:05;12.73;;;12.63;;
20844;SDS011;10583;49.084;8.646;2023-02-22T08:16:32;11.77;;;11.67;;
20844;SDS011;10583;49.084;8.646;2023-02-22T08:18:59;11.13;;;11.03;;
20844;SDS011;10583;49.084;8.646;2023-02-22T08:21:25;11.33;;;11.33;;
20844;SDS011;10583;49.084;8.646;2023-02-22T08:23:52;11.17;;;11.17;;
20844;SDS011;10583;49.084;8.646;2023-02-22T08:26:21;11.20;;;11.20;;
20844;SDS011;10583;49.084;8.646;2023-02-22T08:28:49;12.10;;;12.00;;
20844;SDS011;10583;49.084;8.646;2023-02-22T08:31:16;11.70;;;11.60;;
20844;SDS011;10583;49.084;8.646;2023-02-22T08:33:45;11.07;;;10.97;;
20844;SDS011;10583;49.084;8.646;2023-02-22T08:36:12;11.47;;;11.47;;
20844;SDS011;10583;49.084;8.646;2023-02-22T08:38:40;11.30;;;11.20;;
20844;SDS011;10583;49.084;8.646;2023-02-22T08:41:06;10.77;;;10.77;;
20844;SDS011;10583;49.084;8.646;2023-02-22T08:43:34;10.07;;;10.07;;
20844;SDS011;10583;49.084;8.646;2023-02-22T08:46:01;11.70;;;11.70;;
20844;SDS011;10583;49.084;8.646;2023-02-22T08:48:28;11.67;;;11.60;;
20844;SDS011;10583;49.084;8.646;2023-02-22T08:50:55;10.83;;;10.83;;
20844;SDS011;10583;49.084;8.646;2023-02-22T08:53:22;10.87;;;10.83;;
20844;SDS011;10583;49.084;8.646;2023-02-22T08:55:48;12.10;;;12.00;;
20844;SDS011;10583;49.084;8.646;2023-02-22T08:58:15;10.83;;;10.73;;
20844;SDS011;10583;49.084;8.646;2023-02-22T09:00:43;12.60;;;12.50;;
20844;SDS011;10583;49.084;8.646;2023-02-22T09:03:11;12.57;;;12.47;;
20844;SDS011;10583;49.084;8.646;2023-02-22T09:05:39;11.10;;;11.00;;
20844;SDS011;10583;49.084;8.646;2023-02-22T09:08:05;11.83;;;11.73;;
20844;SDS011;10583;49.084;8.646;2023-02-22T09:10:32;12.10;;;12.00;;
20844;SDS011;10583;49.084;8.646;2023-02-22T09:13:00;11.57;;;11.57;;
20844;SDS011;10583;49.084;8.646;2023-02-22T09:15:28;12.13;;;12.03;;
20844;SDS011;10583;49.084;8.646;2023-02-22T09:17:57;9.97;;;9.97;;
20844;SDS011;10583;49.084;8.646;2023-02-22T09:20:24;11.87;;;11.83;;
20844;SDS011;10583;49.084;8.646;2023-02-22T09:22:53;11.13;;;11.13;;
20844;SDS011;10583;49.084;8.646;2023-02-22T09:25:19;10.60;;;10.60;;
20844;SDS011;10583;49.084;8.646;2023-02-22T09:27:47;11.03;;;11.03;;
20844;SDS011;10583;49.084;8.646;2023-02-22T09:30:15;10.60;;;10.60;;
20844;SDS011;10583;49.084;8.646;2023-02-22T09:32:44;11.00;;;11.00;;
20844;SDS011;10583;49.084;8.646;2023-02-22T09:35:12;10.30;;;10.20;;
20844;SDS011;10583;49.084;8.646;2023-02-22T09:37:39;9.90;;;9.90;;
20844;SDS011;10583;49.084;8.646;2023-02-22T09:40:09;10.17;;;10.17;;
20844;SDS011;10583;49.084;8.646;2023-02-22T09:42:43;10.23;;;10.23;;
20844;SDS011;10583;49.084;8.646;2023-02-22T09:45:21;10.17;;;10.17;;
20844;SDS011;10583;49.084;8.646;2023-02-22T09:47:54;9.90;;;9.80;;
20844;SDS011;10583;49.084;8.646;2023-02-22T09:50:27;9.87;;;9.87;;
20844;SDS011;10583;49.084;8.646;2023-02-22T09:53:01;9.93;;;9.93;;
20844;SDS011;10583;49.084;8.646;2023-02-22T09:55:30;9.27;;;9.27;;
20844;SDS011;10583;49.084;8.646;2023-02-22T09:58:02;9.37;;;9.37;;
20844;SDS011;10583;49.084;8.646;2023-02-22T10:00:32;9.40;;;9.40;;
20844;SDS011;10583;49.084;8.646;2023-02-22T10:03:05;9.50;;;9.50;;
20844;SDS011;10583;49.084;8.646;2023-02-22T10:05:43;9.20;;;9.20;;
20844;SDS011;10583;49.084;8.646;2023-02-22T10:08:17;9.93;;;9.93;;
20844;SDS011;10583;49.084;8.646;2023-02-22T10:10:46;9.33;;;9.33;;
20844;SDS011;10583;49.084;8.646;2023-02-22T10:13:23;8.33;;;8.33;;
20844;SDS011;10583;49.084;8.646;2023-02-22T10:15:54;9.10;;;9.10;;
20844;SDS011;10583;49.084;8.646;2023-02-22T10:18:37;8.47;;;8.47;;
20844;SDS011;10583;49.084;8.646;2023-02-22T10:21:23;7.80;;;7.73;;
20844;SDS011;10583;49.084;8.646;2023-02-22T10:24:04;8.10;;;8.10;;
20844;SDS011;10583;49.084;8.646;2023-02-22T10:26:41;8.70;;;8.70;;
20844;SDS011;10583;49.084;8.646;2023-02-22T10:29:12;8.50;;;8.50;;
20844;SDS011;10583;49.084;8.646;2023-02-22T10:31:46;7.63;;;7.63;;
20844;SDS011;10583;49.084;8.646;2023-02-22T10:34:20;7.93;;;7.93;;
20844;SDS011;10583;49.084;8.646;2023-02-22T10:36:52;7.50;;;7.50;;
20844;SDS011;10583;49.084;8.646;2023-02-22T10:39:26;7.23;;;7.23;;
20844;SDS011;10583;49.084;8.646;2023-02-22T10:41:56;7.93;;;7.93;;
20844;SDS011;10583;49.084;8.646;2023-02-22T10:44:29;7.73;;;7.73;;
20844;SDS011;10583;49.084;8.646;2023-02-22T10:46:57;6.97;;;6.97;;
20844;SDS011;10583;49.084;8.646;2023-02-22T10:49:25;7.03;;;7.03;;
20844;SDS011;10583;49.084;8.646;2023-02-22T10:52:01;6.87;;;6.87;;
20844;SDS011;10583;49.084;8.646;2023-02-22T10:54:30;7.00;;;7.00;;
20844;SDS011;10583;49.084;8.646;2023-02-22T10:57:01;8.27;;;8.27;;
20844;SDS011;10583;49.084;8.646;2023-02-22T10:59:30;8.50;;;8.43;;
20844;SDS011;10583;49.084;8.646;2023-02-22T11:01:59;9.50;;;9.50;;
20844;SDS011;10583;49.084;8.646;2023-02-22T11:04:43;9.67;;;9.67;;
20844;SDS011;10583;49.084;8.646;2023-02-22T11:07:24;9.10;;;9.10;;
20844;SDS011;10583;49.084;8.646;2023-02-22T11:09:53;9.43;;;9.43;;
20844;SDS011;10583;49.084;8.646;2023-02-22T11:12:25;9.67;;;9.67;;
20844;SDS011;10583;49.084;8.646;2023-02-22T11:14:54;9.10;;;9.10;;
20844;SDS011;10583;49.084;8.646;2023-02-22T11:17:23;9.60;;;9.60;;
20844;SDS011;10583;49.084;8.646;2023-02-22T11:19:55;9.60;;;9.60;;
20844;SDS011;10583;49.084;8.646;2023-02-22T11:22:25;10.20;;;10.20;;
20844;SDS011;10583;49.084;8.646;2023-02-22T11:24:55;10.63;;;10.63;;
20844;SDS011;10583;49.084;8.646;2023-02-22T11:27:26;10.10;;;10.10;;
20844;SDS011;10583;49.084;8.646;2023-02-22T11:29:57;9.80;;;9.80;;
20844;SDS011;10583;49.084;8.646;2023-02-22T11:32:41;10.23;;;10.23;;
20844;SDS011;10583;49.084;8.646;2023-02-22T11:35:17;10.37;;;10.37;;
20844;SDS011;10583;49.084;8.646;2023-02-22T11:37:56;10.77;;;10.77;;
20844;SDS011;10583;49.084;8.646;2023-02-22T11:40:36;10.00;;;9.93;;
20844;SDS011;10583;49.084;8.646;2023-02-22T11:43:08;9.23;;;9.23;;
20844;SDS011;10583;49.084;8.646;2023-02-22T11:45:39;9.60;;;9.60;;
20844;SDS011;10583;49.084;8.646;2023-02-22T11:48:27;11.23;;;11.13;;
20844;SDS011;10583;49.084;8.646;2023-02-22T11:50:57;9.90;;;9.90;;
20844;SDS011;10583;49.084;8.646;2023-02-22T11:53:46;9.40;;;9.40;;
20844;SDS011;10583;49.084;8.646;2023-02-22T11:56:24;9.27;;;9.27;;
20844;SDS011;10583;49.084;8.646;2023-02-22T11:58:58;8.90;;;8.90;;
20844;SDS011;10583;49.084;8.646;2023-02-22T12:01:33;10.17;;;10.17;;
20844;SDS011;10583;49.084;8.646;2023-02-22T12:07:16;9.57;;;9.57;;
20844;SDS011;10583;49.084;8.646;2023-02-22T12:09:53;11.97;;;11.97;;
20844;SDS011;10583;49.084;8.646;2023-02-22T12:12:31;8.70;;;8.70;;
20844;SDS011;10583;49.084;8.646;2023-02-22T12:15:07;8.77;;;8.67;;
20844;SDS011;10583;49.084;8.646;2023-02-22T12:17:43;8.40;;;8.40;;
20844;SDS011;10583;49.084;8.646;2023-02-22T12:20:15;8.90;;;8.90;;
20844;SDS011;10583;49.084;8.646;2023-02-22T12:22:51;8.43;;;8.43;;
20844;SDS011;10583;49.084;8.646;2023-02-22T12:25:25;8.20;;;8.20;;
20844;SDS011;10583;49.084;8.646;2023-02-22T12:27:57;8.07;;;8.07;;
20844;SDS011;10583;49.084;8.646;2023-02-22T12:30:28;8.17;;;8.17;;
20844;SDS011;10583;49.084;8.646;2023-02-22T12:33:01;7.77;;;7.77;;
20844;SDS011;10583;49.084;8.646;2023-02-22T12:35:32;8.13;;;8.13;;
20844;SDS011;10583;49.084;8.646;2023-02-22T12:38:02;8.93;;;8.93;;
20844;SDS011;10583;49.084;8.646;2023-02-22T12:40:38;8.87;;;8.87;;
20844;SDS011;10583;49.084;8.646;2023-02-22T12:43:11;7.97;;;7.97;;
20844;SDS011;10583;49.084;8.646;2023-02-22T12:45:43;8.60;;;8.60;;
20844;SDS011;10583;49.084;8.646;2023-02-22T12:48:29;8.33;;;8.30;;
20844;SDS011;10583;49.084;8.646;2023-02-22T12:51:03;8.80;;;8.80;;
20844;SDS011;10583;49.084;8.646;2023-02-22T12:53:43;9.03;;;9.03;;
20844;SDS011;10583;49.084;8.646;2023-02-22T12:56:23;8.40;;;8.40;;
20844;SDS011;10583;49.084;8.646;2023-02-22T12:58:56;8.83;;;8.83;;
20844;SDS011;10583;49.084;8.646;2023-02-22T13:01:28;8.90;;;8.90;;
20844;SDS011;10583;49.084;8.646;2023-02-22T13:04:01;8.73;;;8.73;;
20844;SDS011;10583;49.084;8.646;2023-02-22T13:06:35;7.97;;;7.97;;
20844;SDS011;10583;49.084;8.646;2023-02-22T13:09:15;8.30;;;8.30;;
20844;SDS011;10583;49.084;8.646;2023-02-22T13:11:57;8.53;;;8.53;;
20844;SDS011;10583;49.084;8.646;2023-02-22T13:14:35;8.50;;;8.50;;
20844;SDS011;10583;49.084;8.646;2023-02-22T13:17:08;8.50;;;8.50;;
20844;SDS011;10583;49.084;8.646;2023-02-22T13:19:45;9.43;;;9.43;;
20844;SDS011;10583;49.084;8.646;2023-02-22T13:22:17;8.70;;;8.70;;
20844;SDS011;10583;49.084;8.646;2023-02-22T13:24:54;9.00;;;9.00;;
20844;SDS011;10583;49.084;8.646;2023-02-22T13:27:29;9.23;;;9.13;;
20844;SDS011;10583;49.084;8.646;2023-02-22T13:30:02;9.40;;;9.40;;
20844;SDS011;10583;49.084;8.646;2023-02-22T13:32:39;9.03;;;9.03;;
20844;SDS011;10583;49.084;8.646;2023-02-22T13:35:21;9.67;;;9.57;;
20844;SDS011;10583;49.084;8.646;2023-02-22T13:41:21;9.90;;;9.90;;
20844;SDS011;10583;49.084;8.646;2023-02-22T13:44:14;9.57;;;9.57;;
20844;SDS011;10583;49.084;8.646;2023-02-22T13:50:17;9.60;;;9.60;;
20844;SDS011;10583;49.084;8.646;2023-02-22T13:52:58;10.63;;;10.60;;
20844;SDS011;10583;49.084;8.646;2023-02-22T13:55:30;11.57;;;11.47;;
20844;SDS011;10583;49.084;8.646;2023-02-22T13:57:59;10.67;;;10.67;;
20844;SDS011;10583;49.084;8.646;2023-02-22T14:00:40;11.77;;;11.67;;
20844;SDS011;10583;49.084;8.646;2023-02-22T14:03:28;12.30;;;12.20;;
20844;SDS011;10583;49.084;8.646;2023-02-22T14:06:00;12.80;;;12.70;;
20844;SDS011;10583;49.084;8.646;2023-02-22T14:08:38;10.83;;;10.73;;
20844;SDS011;10583;49.084;8.646;2023-02-22T14:11:38;11.50;;;11.47;;
20844;SDS011;10583;49.084;8.646;2023-02-22T14:14:08;11.50;;;11.50;;
20844;SDS011;10583;49.084;8.646;2023-02-22T14:16:39;11.80;;;11.70;;
20844;SDS011;10583;49.084;8.646;2023-02-22T14:19:12;12.30;;;12.20;;
20844;SDS011;10583;49.084;8.646;2023-02-22T14:21:54;11.83;;;11.73;;
20844;SDS011;10583;49.084;8.646;2023-02-22T14:24:26;12.20;;;12.10;;
20844;SDS011;10583;49.084;8.646;2023-02-22T14:26:54;11.80;;;11.70;;
20844;SDS011;10583;49.084;8.646;2023-02-22T14:29:23;12.57;;;12.47;;
20844;SDS011;10583;49.084;8.646;2023-02-22T14:32:02;12.80;;;12.70;;
20844;SDS011;10583;49.084;8.646;2023-02-22T14:34:41;12.37;;;12.27;;
20844;SDS011;10583;49.084;8.646;2023-02-22T14:37:11;11.70;;;11.60;;
20844;SDS011;10583;49.084;8.646;2023-02-22T14:39:42;11.53;;;11.43;;
20844;SDS011;10583;49.084;8.646;2023-02-22T14:42:11;12.40;;;12.30;;
20844;SDS011;10583;49.084;8.646;2023-02-22T14:44:42;10.77;;;10.77;;
20844;SDS011;10583;49.084;8.646;2023-02-22T14:47:18;11.80;;;11.80;;
20844;SDS011;10583;49.084;8.646;2023-02-22T14:49:52;11.33;;;11.33;;
20844;SDS011;10583;49.084;8.646;2023-02-22T14:52:26;11.63;;;11.53;;
20844;SDS011;10583;49.084;8.646;2023-02-22T14:54:56;11.23;;;11.17;;
20844;SDS011;10583;49.084;8.646;2023-02-22T14:57:29;11.53;;;11.43;;
20844;SDS011;10583;49.084;8.646;2023-02-22T15:00:11;11.47;;;11.47;;
20844;SDS011;10583;49.084;8.646;2023-02-22T15:02:46;11.50;;;11.40;;
20844;SDS011;10583;49.084;8.646;2023-02-22T15:05:16;11.17;;;11.10;;
20844;SDS011;10583;49.084;8.646;2023-02-22T15:07:51;10.67;;;10.67;;
20844;SDS011;10583;49.084;8.646;2023-02-22T15:10:21;11.37;;;11.27;;
20844;SDS011;10583;49.084;8.646;2023-02-22T15:12:50;10.60;;;10.60;;